sensor_id;sensor_type;location;lat;lon;timestamp;temperature;humidity
35258;DHT22;21385;50.878;8.050;2023-02-13T00:00:51;8.30;99.90
35258;DHT22;21385;50.878;8.050;2023-02-13T00:03:17;8.30;99.90
35258;DHT22;21385;50.878;8.050;2023-02-13T00:05:43;8.30;99.90
35258;DHT22;21385;50.878;8.050;2023-02-13T00:08:08;8.40;99.90
35258;DHT22;21385;50.878;8.050;2023-02-13T00:10:34;8.40;99.90
35258;DHT22;21385;50.878;8.050;2023-02-13T00:12:59;8.40;99.90
35258;DHT22;21385;50.878;8.050;2023-02-13T00:15:25;8.40;99.90
35258;DHT22;21385;50.878;8.050;2023-02-13T00:17:50;8.40;99.90
35258;DHT22;21385;50.878;8.050;2023-02-13T00:20:16;8.30;99.90
35258;DHT22;21385;50.878;8.050;2023-02-13T00:22:42;8.40;99.90
35258;DHT22;21385;50.878;8.050;2023-02-13T00:25:11;8.30;99.90
35258;DHT22;21385;50.878;8.050;2023-02-13T00:27:37;8.30;99.90
35258;DHT22;21385;50.878;8.050;2023-02-13T00:30:03;8.30;99.90
35258;DHT22;21385;50.878;8.050;2023-02-13T00:32:29;8.20;99.90
35258;DHT22;21385;50.878;8.050;2023-02-13T00:34:56;8.30;99.90
35258;DHT22;21385;50.878;8.050;2023-02-13T00:37:22;8.30;99.90
35258;DHT22;21385;50.878;8.050;2023-02-13T00:39:48;8.30;99.90
35258;DHT22;21385;50.878;8.050;2023-02-13T00:42:14;8.40;99.90
35258;DHT22;21385;50.878;8.050;2023-02-13T00:44:39;8.40;99.90
35258;DHT22;21385;50.878;8.050;2023-02-13T00:47:05;8.40;99.90
35258;DHT22;21385;50.878;8.050;2023-02-13T00:49:31;8.40;99.90
35258;DHT22;21385;50.878;8.050;2023-02-13T00:51:56;8.30;99.90
35258;DHT22;21385;50.878;8.050;2023-02-13T00:54:22;8.30;99.90
35258;DHT22;21385;50.878;8.050;2023-02-13T00:56:48;8.30;99.90
35258;DHT22;21385;50.878;8.050;2023-02-13T00:59:14;8.20;99.90
35258;DHT22;21385;50.878;8.050;2023-02-13T01:01:40;8.20;99.90
35258;DHT22;21385;50.878;8.050;2023-02-13T01:04:05;8.20;99.90
35258;DHT22;21385;50.878;8.050;2023-02-13T01:06:31;8.20;99.90
35258;DHT22;21385;50.878;8.050;2023-02-13T01:08:56;8.10;99.90
35258;DHT22;21385;50.878;8.050;2023-02-13T01:11:22;8.10;99.90
35258;DHT22;21385;50.878;8.050;2023-02-13T01:13:47;8.10;99.90
35258;DHT22;21385;50.878;8.050;2023-02-13T01:16:13;8.10;99.90
35258;DHT22;21385;50.878;8.050;2023-02-13T01:18:42;8.10;99.90
35258;DHT22;21385;50.878;8.050;2023-02-13T01:21:12;8.10;99.90
35258;DHT22;21385;50.878;8.050;2023-02-13T01:23:39;8.00;99.90
35258;DHT22;21385;50.878;8.050;2023-02-13T01:26:06;7.90;99.90
35258;DHT22;21385;50.878;8.050;2023-02-13T01:28:33;7.90;99.90
35258;DHT22;21385;50.878;8.050;2023-02-13T01:30:59;7.90;99.90
35258;DHT22;21385;50.878;8.050;2023-02-13T01:33:26;7.90;99.90
35258;DHT22;21385;50.878;8.050;2023-02-13T01:35:52;8.00;99.90
35258;DHT22;21385;50.878;8.050;2023-02-13T01:38:18;7.90;99.90
35258;DHT22;21385;50.878;8.050;2023-02-13T01:40:52;7.80;99.90
35258;DHT22;21385;50.878;8.050;2023-02-13T01:43:18;7.80;99.90
35258;DHT22;21385;50.878;8.050;2023-02-13T01:45:46;7.80;99.90
35258;DHT22;21385;50.878;8.050;2023-02-13T01:48:18;7.70;99.90
35258;DHT22;21385;50.878;8.050;2023-02-13T01:50:54;7.80;99.90
35258;DHT22;21385;50.878;8.050;2023-02-13T01:53:26;7.80;99.90
35258;DHT22;21385;50.878;8.050;2023-02-13T01:55:57;7.80;99.90
35258;DHT22;21385;50.878;8.050;2023-02-13T01:58:28;7.80;99.90
35258;DHT22;21385;50.878;8.050;2023-02-13T02:00:56;7.80;99.90
35258;DHT22;21385;50.878;8.050;2023-02-13T02:03:30;7.80;99.90
35258;DHT22;21385;50.878;8.050;2023-02-13T02:05:58;7.80;99.90
35258;DHT22;21385;50.878;8.050;2023-02-13T02:08:24;7.90;99.90
35258;DHT22;21385;50.878;8.050;2023-02-13T02:10:50;7.90;99.90
35258;DHT22;21385;50.878;8.050;2023-02-13T02:13:18;7.80;99.90
35258;DHT22;21385;50.878;8.050;2023-02-13T02:15:45;7.80;99.90
35258;DHT22;21385;50.878;8.050;2023-02-13T02:18:16;7.80;99.90
35258;DHT22;21385;50.878;8.050;2023-02-13T02:32:00;7.90;99.90
35258;DHT22;21385;50.878;8.050;2023-02-13T02:43:13;7.90;99.90
35258;DHT22;21385;50.878;8.050;2023-02-13T02:45:51;7.80;99.90
35258;DHT22;21385;50.878;8.050;2023-02-13T02:56:59;7.90;99.90
35258;DHT22;21385;50.878;8.050;2023-02-13T02:59:29;7.80;99.90
35258;DHT22;21385;50.878;8.050;2023-02-13T03:02:15;7.80;99.90
35258;DHT22;21385;50.878;8.050;2023-02-13T03:05:00;7.80;99.90
35258;DHT22;21385;50.878;8.050;2023-02-13T03:07:45;7.80;99.90
35258;DHT22;21385;50.878;8.050;2023-02-13T03:10:16;7.80;99.90
35258;DHT22;21385;50.878;8.050;2023-02-13T03:13:08;7.80;99.90
35258;DHT22;21385;50.878;8.050;2023-02-13T03:15:52;7.70;99.90
35258;DHT22;21385;50.878;8.050;2023-02-13T03:18:46;7.70;99.90
35258;DHT22;21385;50.878;8.050;2023-02-13T03:25:28;7.70;99.90
35258;DHT22;21385;50.878;8.050;2023-02-13T03:28:02;7.70;99.90
35258;DHT22;21385;50.878;8.050;2023-02-13T03:31:07;7.60;99.90
35258;DHT22;21385;50.878;8.050;2023-02-13T03:39:42;7.80;99.90
35258;DHT22;21385;50.878;8.050;2023-02-13T03:47:36;7.80;99.90
35258;DHT22;21385;50.878;8.050;2023-02-13T03:50:04;7.80;99.90
35258;DHT22;21385;50.878;8.050;2023-02-13T03:55:08;7.80;99.90
35258;DHT22;21385;50.878;8.050;2023-02-13T03:57:57;7.80;99.90
35258;DHT22;21385;50.878;8.050;2023-02-13T04:00:46;7.80;99.90
35258;DHT22;21385;50.878;8.050;2023-02-13T04:03:15;7.80;99.90
35258;DHT22;21385;50.878;8.050;2023-02-13T04:05:48;7.80;99.90
35258;DHT22;21385;50.878;8.050;2023-02-13T04:08:15;7.80;99.90
35258;DHT22;21385;50.878;8.050;2023-02-13T04:10:57;7.80;99.90
35258;DHT22;21385;50.878;8.050;2023-02-13T04:16:21;7.90;99.90
35258;DHT22;21385;50.878;8.050;2023-02-13T04:18:51;7.90;99.90
35258;DHT22;21385;50.878;8.050;2023-02-13T04:21:17;7.90;99.90
35258;DHT22;21385;50.878;8.050;2023-02-13T04:23:42;7.80;99.90
35258;DHT22;21385;50.878;8.050;2023-02-13T04:26:15;7.90;99.90
35258;DHT22;21385;50.878;8.050;2023-02-13T04:28:41;7.90;99.90
35258;DHT22;21385;50.878;8.050;2023-02-13T04:31:07;7.90;99.90
35258;DHT22;21385;50.878;8.050;2023-02-13T04:33:32;7.90;99.90
35258;DHT22;21385;50.878;8.050;2023-02-13T04:35:58;7.90;99.90
35258;DHT22;21385;50.878;8.050;2023-02-13T04:38:23;7.90;99.90
35258;DHT22;21385;50.878;8.050;2023-02-13T04:40:49;7.90;99.90
35258;DHT22;21385;50.878;8.050;2023-02-13T04:43:15;8.00;99.90
35258;DHT22;21385;50.878;8.050;2023-02-13T04:45:41;8.00;99.90
35258;DHT22;21385;50.878;8.050;2023-02-13T04:48:07;7.90;99.90
35258;DHT22;21385;50.878;8.050;2023-02-13T04:50:33;8.00;99.90
35258;DHT22;21385;50.878;8.050;2023-02-13T04:52:58;8.00;99.90
35258;DHT22;21385;50.878;8.050;2023-02-13T04:55:25;8.00;99.90
35258;DHT22;21385;50.878;8.050;2023-02-13T04:57:52;8.00;99.90
35258;DHT22;21385;50.878;8.050;2023-02-13T05:00:19;7.90;99.90
35258;DHT22;21385;50.878;8.050;2023-02-13T05:02:45;7.90;99.90
35258;DHT22;21385;50.878;8.050;2023-02-13T05:05:11;7.90;99.90
35258;DHT22;21385;50.878;8.050;2023-02-13T05:07:36;7.80;99.90
35258;DHT22;21385;50.878;8.050;2023-02-13T05:10:02;7.80;99.90
35258;DHT22;21385;50.878;8.050;2023-02-13T05:12:27;7.90;99.90
35258;DHT22;21385;50.878;8.050;2023-02-13T05:14:53;7.80;99.90
35258;DHT22;21385;50.878;8.050;2023-02-13T05:17:18;7.80;99.90
35258;DHT22;21385;50.878;8.050;2023-02-13T05:19:44;7.80;99.90
35258;DHT22;21385;50.878;8.050;2023-02-13T05:24:55;7.80;99.90
35258;DHT22;21385;50.878;8.050;2023-02-13T05:27:20;7.80;99.90
35258;DHT22;21385;50.878;8.050;2023-02-13T05:29:46;7.80;99.90
35258;DHT22;21385;50.878;8.050;2023-02-13T05:32:11;7.80;99.90
35258;DHT22;21385;50.878;8.050;2023-02-13T05:34:37;7.80;99.90
35258;DHT22;21385;50.878;8.050;2023-02-13T05:37:03;7.70;99.90
35258;DHT22;21385;50.878;8.050;2023-02-13T05:39:28;7.70;99.90
35258;DHT22;21385;50.878;8.050;2023-02-13T05:41:54;7.70;99.90
35258;DHT22;21385;50.878;8.050;2023-02-13T05:44:19;7.60;99.90
35258;DHT22;21385;50.878;8.050;2023-02-13T05:46:45;7.70;99.90
35258;DHT22;21385;50.878;8.050;2023-02-13T05:49:12;7.70;99.90
35258;DHT22;21385;50.878;8.050;2023-02-13T05:51:38;7.70;99.90
35258;DHT22;21385;50.878;8.050;2023-02-13T05:54:03;7.70;99.90
35258;DHT22;21385;50.878;8.050;2023-02-13T05:56:29;7.70;99.90
35258;DHT22;21385;50.878;8.050;2023-02-13T05:58:55;7.60;99.90
35258;DHT22;21385;50.878;8.050;2023-02-13T06:01:22;7.60;99.90
35258;DHT22;21385;50.878;8.050;2023-02-13T06:03:48;7.60;99.90
35258;DHT22;21385;50.878;8.050;2023-02-13T06:06:14;7.60;99.90
35258;DHT22;21385;50.878;8.050;2023-02-13T06:08:40;7.60;99.90
35258;DHT22;21385;50.878;8.050;2023-02-13T06:11:05;7.50;99.90
35258;DHT22;21385;50.878;8.050;2023-02-13T06:13:31;7.50;99.90
35258;DHT22;21385;50.878;8.050;2023-02-13T06:15:57;7.40;99.90
35258;DHT22;21385;50.878;8.050;2023-02-13T06:18:23;7.40;99.90
35258;DHT22;21385;50.878;8.050;2023-02-13T06:20:48;7.30;99.90
35258;DHT22;21385;50.878;8.050;2023-02-13T06:23:14;7.20;99.90
35258;DHT22;21385;50.878;8.050;2023-02-13T06:25:40;7.20;99.90
35258;DHT22;21385;50.878;8.050;2023-02-13T06:28:06;7.20;99.90
35258;DHT22;21385;50.878;8.050;2023-02-13T06:30:32;7.10;99.90
35258;DHT22;21385;50.878;8.050;2023-02-13T06:32:58;7.00;99.90
35258;DHT22;21385;50.878;8.050;2023-02-13T06:35:24;7.00;99.90
35258;DHT22;21385;50.878;8.050;2023-02-13T06:37:50;7.00;99.90
35258;DHT22;21385;50.878;8.050;2023-02-13T06:40:16;7.00;99.90
35258;DHT22;21385;50.878;8.050;2023-02-13T06:42:42;6.90;99.90
35258;DHT22;21385;50.878;8.050;2023-02-13T06:45:09;6.90;99.90
35258;DHT22;21385;50.878;8.050;2023-02-13T06:47:35;6.80;99.90
35258;DHT22;21385;50.878;8.050;2023-02-13T06:50:00;6.80;99.90
35258;DHT22;21385;50.878;8.050;2023-02-13T06:52:26;6.80;99.90
35258;DHT22;21385;50.878;8.050;2023-02-13T06:54:52;6.70;99.90
35258;DHT22;21385;50.878;8.050;2023-02-13T06:57:17;6.70;99.90
35258;DHT22;21385;50.878;8.050;2023-02-13T06:59:43;6.70;99.90
35258;DHT22;21385;50.878;8.050;2023-02-13T07:02:10;6.60;99.90
35258;DHT22;21385;50.878;8.050;2023-02-13T07:04:35;6.60;99.90
35258;DHT22;21385;50.878;8.050;2023-02-13T07:07:01;6.60;99.90
35258;DHT22;21385;50.878;8.050;2023-02-13T07:09:26;6.60;99.90
35258;DHT22;21385;50.878;8.050;2023-02-13T07:11:52;6.50;99.90
35258;DHT22;21385;50.878;8.050;2023-02-13T07:14:18;6.50;99.90
35258;DHT22;21385;50.878;8.050;2023-02-13T07:16:43;6.50;99.90
35258;DHT22;21385;50.878;8.050;2023-02-13T07:19:09;6.50;99.90
35258;DHT22;21385;50.878;8.050;2023-02-13T07:21:34;6.50;99.90
35258;DHT22;21385;50.878;8.050;2023-02-13T07:24:02;6.50;99.90
35258;DHT22;21385;50.878;8.050;2023-02-13T07:26:28;6.50;99.90
35258;DHT22;21385;50.878;8.050;2023-02-13T07:28:54;6.60;99.90
35258;DHT22;21385;50.878;8.050;2023-02-13T07:31:19;6.60;99.90
35258;DHT22;21385;50.878;8.050;2023-02-13T07:33:47;6.60;99.90
35258;DHT22;21385;50.878;8.050;2023-02-13T07:36:13;6.60;99.90
35258;DHT22;21385;50.878;8.050;2023-02-13T07:38:39;6.60;99.90
35258;DHT22;21385;50.878;8.050;2023-02-13T07:41:04;6.70;99.90
35258;DHT22;21385;50.878;8.050;2023-02-13T07:43:30;6.80;99.90
35258;DHT22;21385;50.878;8.050;2023-02-13T07:46:00;6.80;99.90
35258;DHT22;21385;50.878;8.050;2023-02-13T07:48:26;6.80;99.90
35258;DHT22;21385;50.878;8.050;2023-02-13T07:50:54;6.70;99.90
35258;DHT22;21385;50.878;8.050;2023-02-13T07:53:23;6.70;99.90
35258;DHT22;21385;50.878;8.050;2023-02-13T07:55:49;6.80;99.90
35258;DHT22;21385;50.878;8.050;2023-02-13T07:58:14;6.70;99.90
35258;DHT22;21385;50.878;8.050;2023-02-13T08:00:40;6.70;99.90
35258;DHT22;21385;50.878;8.050;2023-02-13T08:03:06;6.70;99.90
35258;DHT22;21385;50.878;8.050;2023-02-13T08:05:32;6.80;99.90
35258;DHT22;21385;50.878;8.050;2023-02-13T08:07:58;6.80;99.90
35258;DHT22;21385;50.878;8.050;2023-02-13T08:10:23;6.90;99.90
35258;DHT22;21385;50.878;8.050;2023-02-13T08:13:08;6.90;99.90
35258;DHT22;21385;50.878;8.050;2023-02-13T08:15:36;7.00;99.90
35258;DHT22;21385;50.878;8.050;2023-02-13T08:18:01;7.10;99.90
35258;DHT22;21385;50.878;8.050;2023-02-13T08:20:27;7.20;99.90
35258;DHT22;21385;50.878;8.050;2023-02-13T08:22:53;7.10;99.90
35258;DHT22;21385;50.878;8.050;2023-02-13T08:25:18;7.20;99.90
35258;DHT22;21385;50.878;8.050;2023-02-13T08:27:45;7.20;99.90
35258;DHT22;21385;50.878;8.050;2023-02-13T08:30:11;7.20;99.90
35258;DHT22;21385;50.878;8.050;2023-02-13T08:32:37;7.20;99.90
35258;DHT22;21385;50.878;8.050;2023-02-13T08:35:03;7.20;99.90
35258;DHT22;21385;50.878;8.050;2023-02-13T08:37:28;7.20;99.90
35258;DHT22;21385;50.878;8.050;2023-02-13T08:39:54;7.20;99.90
35258;DHT22;21385;50.878;8.050;2023-02-13T08:42:19;7.30;99.90
35258;DHT22;21385;50.878;8.050;2023-02-13T08:47:11;7.40;99.90
35258;DHT22;21385;50.878;8.050;2023-02-13T08:49:36;7.50;99.90
35258;DHT22;21385;50.878;8.050;2023-02-13T08:52:02;7.60;99.90
35258;DHT22;21385;50.878;8.050;2023-02-13T08:54:29;7.60;99.90
35258;DHT22;21385;50.878;8.050;2023-02-13T08:56:54;7.70;99.90
35258;DHT22;21385;50.878;8.050;2023-02-13T08:59:20;7.80;99.90
35258;DHT22;21385;50.878;8.050;2023-02-13T09:01:46;7.90;99.90
35258;DHT22;21385;50.878;8.050;2023-02-13T09:04:11;8.00;99.90
35258;DHT22;21385;50.878;8.050;2023-02-13T09:06:40;8.20;99.90
35258;DHT22;21385;50.878;8.050;2023-02-13T09:09:07;8.30;99.90
35258;DHT22;21385;50.878;8.050;2023-02-13T09:11:32;8.40;99.90
35258;DHT22;21385;50.878;8.050;2023-02-13T09:13:58;8.50;99.90
35258;DHT22;21385;50.878;8.050;2023-02-13T09:16:24;8.60;99.90
35258;DHT22;21385;50.878;8.050;2023-02-13T09:18:50;8.70;99.90
35258;DHT22;21385;50.878;8.050;2023-02-13T09:21:17;8.70;99.90
35258;DHT22;21385;50.878;8.050;2023-02-13T09:23:42;8.80;99.90
35258;DHT22;21385;50.878;8.050;2023-02-13T09:26:10;9.00;99.90
35258;DHT22;21385;50.878;8.050;2023-02-13T09:28:37;9.00;99.90
35258;DHT22;21385;50.878;8.050;2023-02-13T09:31:13;9.10;99.90
35258;DHT22;21385;50.878;8.050;2023-02-13T09:33:43;9.10;99.90
35258;DHT22;21385;50.878;8.050;2023-02-13T09:36:11;9.20;99.90
35258;DHT22;21385;50.878;8.050;2023-02-13T09:38:39;9.30;99.90
35258;DHT22;21385;50.878;8.050;2023-02-13T09:41:18;9.40;99.90
35258;DHT22;21385;50.878;8.050;2023-02-13T09:43:50;9.50;99.90
35258;DHT22;21385;50.878;8.050;2023-02-13T09:46:23;9.60;99.90
35258;DHT22;21385;50.878;8.050;2023-02-13T09:48:53;9.60;99.90
35258;DHT22;21385;50.878;8.050;2023-02-13T09:51:21;9.70;99.90
35258;DHT22;21385;50.878;8.050;2023-02-13T09:53:55;9.80;99.90
35258;DHT22;21385;50.878;8.050;2023-02-13T09:56:59;10.00;99.90
35258;DHT22;21385;50.878;8.050;2023-02-13T10:07:49;10.60;99.90
35258;DHT22;21385;50.878;8.050;2023-02-13T10:18:17;11.40;99.90
35258;DHT22;21385;50.878;8.050;2023-02-13T10:20:58;11.50;99.90
35258;DHT22;21385;50.878;8.050;2023-02-13T10:23:44;11.70;99.90
35258;DHT22;21385;50.878;8.050;2023-02-13T10:26:22;11.80;99.90
35258;DHT22;21385;50.878;8.050;2023-02-13T10:29:05;12.00;99.90
35258;DHT22;21385;50.878;8.050;2023-02-13T10:31:51;12.30;99.90
35258;DHT22;21385;50.878;8.050;2023-02-13T10:34:21;12.40;99.90
35258;DHT22;21385;50.878;8.050;2023-02-13T10:36:49;12.60;99.90
35258;DHT22;21385;50.878;8.050;2023-02-13T10:39:23;12.70;99.90
35258;DHT22;21385;50.878;8.050;2023-02-13T10:41:54;12.80;99.90
35258;DHT22;21385;50.878;8.050;2023-02-13T11:01:02;13.30;99.90
35258;DHT22;21385;50.878;8.050;2023-02-13T11:03:31;13.60;99.90
35258;DHT22;21385;50.878;8.050;2023-02-13T11:05:58;13.70;99.90
35258;DHT22;21385;50.878;8.050;2023-02-13T11:10:59;13.80;99.90
35258;DHT22;21385;50.878;8.050;2023-02-13T11:13:28;14.00;99.90
35258;DHT22;21385;50.878;8.050;2023-02-13T11:16:06;14.40;99.90
35258;DHT22;21385;50.878;8.050;2023-02-13T11:18:34;14.60;99.90
35258;DHT22;21385;50.878;8.050;2023-02-13T11:21:05;14.90;99.90
35258;DHT22;21385;50.878;8.050;2023-02-13T11:23:36;15.10;99.90
35258;DHT22;21385;50.878;8.050;2023-02-13T11:26:04;15.40;99.90
35258;DHT22;21385;50.878;8.050;2023-02-13T11:28:43;15.60;99.90
35258;DHT22;21385;50.878;8.050;2023-02-13T11:33:37;15.70;99.90
35258;DHT22;21385;50.878;8.050;2023-02-13T11:36:08;15.70;99.90
35258;DHT22;21385;50.878;8.050;2023-02-13T11:38:35;15.90;99.90
35258;DHT22;21385;50.878;8.050;2023-02-13T11:41:12;16.20;99.90
35258;DHT22;21385;50.878;8.050;2023-02-13T11:43:48;16.50;99.90
35258;DHT22;21385;50.878;8.050;2023-02-13T11:46:24;16.70;99.50
35258;DHT22;21385;50.878;8.050;2023-02-13T11:49:05;16.90;99.00
35258;DHT22;21385;50.878;8.050;2023-02-13T11:51:46;17.10;98.50
35258;DHT22;21385;50.878;8.050;2023-02-13T11:57:14;17.60;96.80
35258;DHT22;21385;50.878;8.050;2023-02-13T11:59:43;17.70;97.00
35258;DHT22;21385;50.878;8.050;2023-02-13T12:02:19;17.90;95.90
35258;DHT22;21385;50.878;8.050;2023-02-13T12:04:47;18.10;95.10
35258;DHT22;21385;50.878;8.050;2023-02-13T12:09:48;18.60;94.40
35258;DHT22;21385;50.878;8.050;2023-02-13T12:12:37;18.80;93.90
35258;DHT22;21385;50.878;8.050;2023-02-13T12:15:17;18.90;94.00
35258;DHT22;21385;50.878;8.050;2023-02-13T12:17:44;19.20;93.30
35258;DHT22;21385;50.878;8.050;2023-02-13T12:20:13;19.40;91.80
35258;DHT22;21385;50.878;8.050;2023-02-13T12:23:02;19.60;91.20
35258;DHT22;21385;50.878;8.050;2023-02-13T12:28:26;20.00;88.70
35258;DHT22;21385;50.878;8.050;2023-02-13T12:31:02;20.10;86.20
35258;DHT22;21385;50.878;8.050;2023-02-13T12:36:24;20.40;86.10
35258;DHT22;21385;50.878;8.050;2023-02-13T12:42:08;20.70;83.10
35258;DHT22;21385;50.878;8.050;2023-02-13T12:45:09;20.80;82.90
35258;DHT22;21385;50.878;8.050;2023-02-13T12:53:42;21.50;78.10
35258;DHT22;21385;50.878;8.050;2023-02-13T12:56:41;21.60;75.80
35258;DHT22;21385;50.878;8.050;2023-02-13T13:04:59;21.80;74.50
35258;DHT22;21385;50.878;8.050;2023-02-13T13:15:43;22.50;68.30
35258;DHT22;21385;50.878;8.050;2023-02-13T13:24:05;23.10;67.20
35258;DHT22;21385;50.878;8.050;2023-02-13T13:26:44;23.30;63.90
35258;DHT22;21385;50.878;8.050;2023-02-13T13:29:24;23.50;62.90
35258;DHT22;21385;50.878;8.050;2023-02-13T13:32:04;23.60;62.20
35258;DHT22;21385;50.878;8.050;2023-02-13T13:34:31;23.30;61.70
35258;DHT22;21385;50.878;8.050;2023-02-13T13:37:04;23.40;62.20
35258;DHT22;21385;50.878;8.050;2023-02-13T13:42:46;23.70;60.60
35258;DHT22;21385;50.878;8.050;2023-02-13T13:45:27;24.00;61.60
35258;DHT22;21385;50.878;8.050;2023-02-13T13:50:45;24.60;57.80
35258;DHT22;21385;50.878;8.050;2023-02-13T13:53:16;24.50;56.80
35258;DHT22;21385;50.878;8.050;2023-02-13T13:58:44;24.50;55.90
35258;DHT22;21385;50.878;8.050;2023-02-13T14:01:26;24.70;55.60
35258;DHT22;21385;50.878;8.050;2023-02-13T14:04:02;24.80;54.60
35258;DHT22;21385;50.878;8.050;2023-02-13T14:09:39;25.10;53.80
35258;DHT22;21385;50.878;8.050;2023-02-13T14:14:53;25.20;52.40
35258;DHT22;21385;50.878;8.050;2023-02-13T14:23:11;25.40;51.40
35258;DHT22;21385;50.878;8.050;2023-02-13T14:25:38;25.50;50.80
35258;DHT22;21385;50.878;8.050;2023-02-13T14:28:04;25.60;50.40
35258;DHT22;21385;50.878;8.050;2023-02-13T14:30:31;25.50;50.10
35258;DHT22;21385;50.878;8.050;2023-02-13T14:33:04;25.70;49.40
35258;DHT22;21385;50.878;8.050;2023-02-13T14:35:36;25.70;49.90
35258;DHT22;21385;50.878;8.050;2023-02-13T14:38:06;25.80;49.40
35258;DHT22;21385;50.878;8.050;2023-02-13T14:40:51;25.80;48.70
35258;DHT22;21385;50.878;8.050;2023-02-13T14:48:43;25.90;47.90
35258;DHT22;21385;50.878;8.050;2023-02-13T14:51:30;26.10;47.20
35258;DHT22;21385;50.878;8.050;2023-02-13T14:54:02;26.00;47.80
35258;DHT22;21385;50.878;8.050;2023-02-13T14:56:29;26.00;46.90
35258;DHT22;21385;50.878;8.050;2023-02-13T14:59:11;26.10;47.00
35258;DHT22;21385;50.878;8.050;2023-02-13T15:01:55;26.10;46.50
35258;DHT22;21385;50.878;8.050;2023-02-13T15:07:03;26.20;45.50
35258;DHT22;21385;50.878;8.050;2023-02-13T15:09:34;26.20;45.80
35258;DHT22;21385;50.878;8.050;2023-02-13T15:12:03;26.30;45.50
35258;DHT22;21385;50.878;8.050;2023-02-13T15:14:33;26.40;45.50
35258;DHT22;21385;50.878;8.050;2023-02-13T15:17:18;26.30;45.00
35258;DHT22;21385;50.878;8.050;2023-02-13T15:19:48;26.20;44.80
35258;DHT22;21385;50.878;8.050;2023-02-13T15:22:36;26.00;44.70
35258;DHT22;21385;50.878;8.050;2023-02-13T15:25:03;25.90;46.20
35258;DHT22;21385;50.878;8.050;2023-02-13T15:27:33;26.00;46.10
35258;DHT22;21385;50.878;8.050;2023-02-13T15:30:21;26.00;45.90
35258;DHT22;21385;50.878;8.050;2023-02-13T15:32:54;25.80;45.60
35258;DHT22;21385;50.878;8.050;2023-02-13T15:35:26;25.60;45.40
35258;DHT22;21385;50.878;8.050;2023-02-13T15:37:52;25.40;45.70
35258;DHT22;21385;50.878;8.050;2023-02-13T15:40:29;25.40;45.30
35258;DHT22;21385;50.878;8.050;2023-02-13T15:42:55;25.40;45.10
35258;DHT22;21385;50.878;8.050;2023-02-13T15:45:23;25.40;45.40
35258;DHT22;21385;50.878;8.050;2023-02-13T15:47:49;25.50;45.40
35258;DHT22;21385;50.878;8.050;2023-02-13T15:52:50;25.50;44.60
35258;DHT22;21385;50.878;8.050;2023-02-13T15:55:21;25.50;45.00
35258;DHT22;21385;50.878;8.050;2023-02-13T15:57:49;25.30;44.30
35258;DHT22;21385;50.878;8.050;2023-02-13T16:00:36;25.10;44.80
35258;DHT22;21385;50.878;8.050;2023-02-13T16:03:06;25.00;45.00
35258;DHT22;21385;50.878;8.050;2023-02-13T16:05:37;24.90;44.90
35258;DHT22;21385;50.878;8.050;2023-02-13T16:10:49;24.60;45.40
35258;DHT22;21385;50.878;8.050;2023-02-13T16:13:17;24.30;45.60
35258;DHT22;21385;50.878;8.050;2023-02-13T16:15:43;24.10;46.00
35258;DHT22;21385;50.878;8.050;2023-02-13T16:18:17;23.60;46.60
35258;DHT22;21385;50.878;8.050;2023-02-13T16:20:43;22.80;47.70
35258;DHT22;21385;50.878;8.050;2023-02-13T16:23:19;22.00;49.00
35258;DHT22;21385;50.878;8.050;2023-02-13T16:25:46;21.30;50.40
35258;DHT22;21385;50.878;8.050;2023-02-13T16:30:42;19.80;53.70
35258;DHT22;21385;50.878;8.050;2023-02-13T16:35:54;19.40;55.00
35258;DHT22;21385;50.878;8.050;2023-02-13T16:40:49;18.80;58.30
35258;DHT22;21385;50.878;8.050;2023-02-13T16:51:28;17.50;60.10
35258;DHT22;21385;50.878;8.050;2023-02-13T16:53:57;17.20;61.50
35258;DHT22;21385;50.878;8.050;2023-02-13T16:56:23;16.80;62.90
35258;DHT22;21385;50.878;8.050;2023-02-13T16:58:49;16.50;64.20
35258;DHT22;21385;50.878;8.050;2023-02-13T17:01:15;16.30;65.50
35258;DHT22;21385;50.878;8.050;2023-02-13T17:03:42;16.00;66.80
35258;DHT22;21385;50.878;8.050;2023-02-13T17:06:09;15.70;68.10
35258;DHT22;21385;50.878;8.050;2023-02-13T17:08:34;15.50;69.60
35258;DHT22;21385;50.878;8.050;2023-02-13T17:11:05;15.20;70.80
35258;DHT22;21385;50.878;8.050;2023-02-13T17:13:32;15.00;72.00
35258;DHT22;21385;50.878;8.050;2023-02-13T17:15:58;14.80;73.50
35258;DHT22;21385;50.878;8.050;2023-02-13T17:18:25;14.80;74.30
35258;DHT22;21385;50.878;8.050;2023-02-13T17:20:51;14.60;75.20
35258;DHT22;21385;50.878;8.050;2023-02-13T17:23:20;14.40;76.80
35258;DHT22;21385;50.878;8.050;2023-02-13T17:25:47;14.30;77.70
35258;DHT22;21385;50.878;8.050;2023-02-13T17:28:25;14.10;79.10
35258;DHT22;21385;50.878;8.050;2023-02-13T17:30:54;13.90;80.50
35258;DHT22;21385;50.878;8.050;2023-02-13T17:33:23;13.80;82.00
35258;DHT22;21385;50.878;8.050;2023-02-13T17:38:16;13.40;85.20
35258;DHT22;21385;50.878;8.050;2023-02-13T17:40:42;13.30;87.40
35258;DHT22;21385;50.878;8.050;2023-02-13T17:43:13;13.20;89.10
35258;DHT22;21385;50.878;8.050;2023-02-13T17:45:39;13.10;90.10
35258;DHT22;21385;50.878;8.050;2023-02-13T17:48:05;13.10;90.70
35258;DHT22;21385;50.878;8.050;2023-02-13T17:50:32;13.00;91.50
35258;DHT22;21385;50.878;8.050;2023-02-13T17:53:00;12.90;92.20
35258;DHT22;21385;50.878;8.050;2023-02-13T17:55:28;12.80;93.00
35258;DHT22;21385;50.878;8.050;2023-02-13T17:57:56;12.60;93.90
35258;DHT22;21385;50.878;8.050;2023-02-13T18:00:24;12.60;94.50
35258;DHT22;21385;50.878;8.050;2023-02-13T18:02:50;12.50;95.10
35258;DHT22;21385;50.878;8.050;2023-02-13T18:05:17;12.40;95.90
35258;DHT22;21385;50.878;8.050;2023-02-13T18:07:44;12.30;96.90
35258;DHT22;21385;50.878;8.050;2023-02-13T18:10:16;12.20;97.80
35258;DHT22;21385;50.878;8.050;2023-02-13T18:12:42;12.00;98.60
35258;DHT22;21385;50.878;8.050;2023-02-13T18:15:08;11.80;99.30
35258;DHT22;21385;50.878;8.050;2023-02-13T18:17:33;11.70;99.90
35258;DHT22;21385;50.878;8.050;2023-02-13T18:19:59;11.60;99.90
35258;DHT22;21385;50.878;8.050;2023-02-13T18:22:25;11.50;99.90
35258;DHT22;21385;50.878;8.050;2023-02-13T18:24:50;11.40;99.90
35258;DHT22;21385;50.878;8.050;2023-02-13T18:27:16;11.30;99.90
35258;DHT22;21385;50.878;8.050;2023-02-13T18:29:42;11.20;99.90
35258;DHT22;21385;50.878;8.050;2023-02-13T18:32:09;11.10;99.90
35258;DHT22;21385;50.878;8.050;2023-02-13T18:34:35;10.90;99.90
35258;DHT22;21385;50.878;8.050;2023-02-13T18:37:01;10.90;99.90
35258;DHT22;21385;50.878;8.050;2023-02-13T18:39:27;10.60;99.90
35258;DHT22;21385;50.878;8.050;2023-02-13T18:41:53;10.50;99.90
35258;DHT22;21385;50.878;8.050;2023-02-13T18:44:18;10.50;99.90
35258;DHT22;21385;50.878;8.050;2023-02-13T18:46:44;10.40;99.90
35258;DHT22;21385;50.878;8.050;2023-02-13T18:49:10;10.30;99.90
35258;DHT22;21385;50.878;8.050;2023-02-13T18:51:37;10.20;99.90
35258;DHT22;21385;50.878;8.050;2023-02-13T18:54:03;10.10;99.90
35258;DHT22;21385;50.878;8.050;2023-02-13T18:56:29;10.00;99.90
35258;DHT22;21385;50.878;8.050;2023-02-13T18:58:55;9.90;99.90